Time;durP1;ratioP1;P1;durP2;ratioP2;P2;SDS_P1;SDS_P2;PMS_P1;PMS_P2;Temp;Humidity;BMP_temperature;BMP_pressure;BME280_temperature;BME280_humidity;BME280_pressure;Samples;Min_cycle;Max_cycle;Signal;HPM_P1;HPM_P2
2022/02/12 00:00:54;;;;;;;13.40;8.83;;;;;;;12.00;61.66;99778.39;1753618;80;21021;-68
2022/02/12 00:03:20;;;;;;;11.22;8.68;;;;;;;11.99;61.59;99776.75;1761440;80;21580;-67
2022/02/12 00:05:47;;;;;;;10.80;8.38;;;;;;;11.98;61.57;99784.40;1708690;82;21066;-67
2022/02/12 00:08:13;;;;;;;12.45;8.93;;;;;;;11.97;61.54;99789.38;1751101;80;20987;-66
2022/02/12 00:10:40;;;;;;;11.08;8.23;;;;;;;11.97;61.51;99788.05;1753889;81;21079;-68
2022/02/12 00:13:11;;;;;;;12.35;8.50;;;;;;;11.97;61.47;99783.23;1736719;81;21043;-67
2022/02/12 00:15:37;;;;;;;12.40;8.80;;;;;;;11.96;61.42;99780.27;1755212;80;21093;-67
2022/02/12 00:18:05;;;;;;;11.57;8.38;;;;;;;11.95;61.40;99775.42;1742915;81;21167;-67
2022/02/12 00:20:31;;;;;;;10.82;7.80;;;;;;;11.94;61.36;99768.45;1756041;80;21055;-67
2022/02/12 00:22:57;;;;;;;10.00;8.40;;;;;;;11.94;61.30;99763.13;1737074;81;20992;-68
2022/02/12 00:25:24;;;;;;;10.80;8.55;;;;;;;11.95;61.29;99763.95;1759204;80;21074;-69
2022/02/12 00:27:50;;;;;;;11.18;8.28;;;;;;;11.94;61.25;99756.98;1743970;81;21074;-68
2022/02/12 00:30:17;;;;;;;10.08;8.30;;;;;;;11.93;61.22;99756.13;1754790;81;21101;-67
2022/02/12 00:32:44;;;;;;;10.72;8.20;;;;;;;11.92;61.19;99754.49;1735867;80;21648;-67
2022/02/12 00:35:10;;;;;;;10.35;7.97;;;;;;;11.91;61.15;99751.48;1749139;80;21085;-67
2022/02/12 00:37:37;;;;;;;11.55;8.53;;;;;;;11.91;61.14;99738.19;1747377;80;20987;-67
2022/02/12 00:40:06;;;;;;;10.30;7.47;;;;;;;11.91;61.08;99732.86;1770971;79;21042;-69
2022/02/12 00:42:33;;;;;;;9.20;7.35;;;;;;;11.90;61.07;99735.21;1774216;79;21124;-67
2022/02/12 00:45:00;;;;;;;9.63;7.53;;;;;;;11.88;61.05;99723.03;1789098;79;21458;-67
2022/02/12 00:47:28;;;;;;;10.10;8.00;;;;;;;11.88;61.02;99716.38;1775215;79;21560;-67
2022/02/12 00:49:55;;;;;;;9.65;7.60;;;;;;;11.87;60.98;99712.89;1769529;79;21022;-68
2022/02/12 00:55:12;;;;;;;10.38;8.10;;;;;;;11.90;60.93;99707.26;1852552;76;29003;-67
2022/02/12 00:57:39;;;;;;;10.13;8.00;;;;;;;11.85;60.89;99699.45;1819547;77;20965;-68
2022/02/12 01:00:08;;;;;;;10.08;7.80;;;;;;;11.85;60.87;99694.13;1809686;78;21132;-67
2022/02/12 01:02:35;;;;;;;8.98;6.58;;;;;;;11.84;60.86;99691.97;1809359;78;21060;-68
2022/02/12 01:05:01;;;;;;;10.48;7.30;;;;;;;11.82;60.85;99689.99;1815687;78;21006;-68
2022/02/12 01:07:28;;;;;;;8.38;6.92;;;;;;;11.74;60.83;99672.73;1804951;78;21024;-68
2022/02/12 01:09:55;;;;;;;9.28;6.97;;;;;;;11.80;60.82;99686.17;1820207;78;20994;-67
2022/02/12 01:12:21;;;;;;;9.08;7.28;;;;;;;11.79;60.82;99685.83;1813687;78;21833;-67
2022/02/12 01:14:50;;;;;;;7.90;6.53;;;;;;;11.79;60.79;99676.52;1814452;78;21525;-67
2022/02/12 01:17:16;;;;;;;9.03;7.28;;;;;;;11.77;60.78;99681.70;1821558;77;21003;-66
2022/02/12 01:19:46;;;;;;;7.90;6.60;;;;;;;11.77;60.77;99692.34;1806696;78;21079;-67
2022/02/12 01:22:12;;;;;;;7.28;6.35;;;;;;;11.76;60.76;99698.18;1808137;78;21005;-67
2022/02/12 01:24:42;;;;;;;8.58;7.10;;;;;;;11.75;60.73;99699.17;1813679;77;21624;-67
2022/02/12 01:27:08;;;;;;;8.33;6.37;;;;;;;11.75;60.72;99695.17;1813649;78;21462;-66
2022/02/12 01:29:35;;;;;;;7.33;5.87;;;;;;;11.74;60.70;99690.02;1826253;78;21626;-67
2022/02/12 01:32:03;;;;;;;9.05;6.95;;;;;;;11.73;60.68;99689.72;1825815;77;21057;-67
2022/02/12 01:34:34;;;;;;;7.72;6.45;;;;;;;11.72;60.68;99689.37;1812827;78;21060;-66
2022/02/12 01:37:05;;;;;;;8.00;6.70;;;;;;;11.72;60.65;99688.86;1811865;78;21290;-66
2022/02/12 01:39:31;;;;;;;8.83;6.50;;;;;;;11.71;60.66;99693.06;1823652;78;21029;-67
2022/02/12 01:41:58;;;;;;;8.80;6.58;;;;;;;11.70;60.66;99704.69;1823910;78;21072;-68
2022/02/12 01:44:33;;;;;;;7.83;6.62;;;;;;;11.70;60.65;99706.02;1824934;78;21045;-67
2022/02/12 01:47:01;;;;;;;7.90;6.58;;;;;;;11.69;60.63;99703.87;1799788;77;21091;-67
2022/02/12 01:49:28;;;;;;;7.95;6.15;;;;;;;11.68;60.61;99693.40;1820013;77;21122;-68
2022/02/12 01:51:55;;;;;;;7.33;5.92;;;;;;;11.67;60.64;99693.91;1808903;78;21055;-67
2022/02/12 01:54:23;;;;;;;7.22;5.90;;;;;;;11.67;60.58;99695.75;1812067;78;21022;-68
2022/02/12 01:56:52;;;;;;;8.55;6.47;;;;;;;11.61;60.58;99687.97;1806699;79;21058;-68
2022/02/12 01:59:22;;;;;;;7.97;6.50;;;;;;;11.65;60.57;99699.91;1811155;79;21100;-68
2022/02/12 02:01:49;;;;;;;7.33;6.17;;;;;;;11.65;60.56;99699.06;1808019;78;21578;-67
2022/02/12 02:04:16;;;;;;;8.20;6.67;;;;;;;11.64;60.53;99702.23;1806134;79;21074;-67
2022/02/12 02:06:43;;;;;;;8.73;7.40;;;;;;;11.63;60.53;99700.59;1800600;79;21081;-68
2022/02/12 02:09:10;;;;;;;7.95;6.62;;;;;;;11.62;60.53;99700.25;1799784;79;21021;-68
2022/02/12 02:11:39;;;;;;;7.08;6.08;;;;;;;11.62;60.53;99701.58;1788841;79;21033;-68
2022/02/12 02:14:05;;;;;;;7.12;6.40;;;;;;;11.61;60.51;99694.62;1800677;77;21132;-68
2022/02/12 02:16:31;;;;;;;8.03;6.28;;;;;;;11.59;60.50;99697.45;1810188;78;20975;-67
2022/02/12 02:18:58;;;;;;;6.80;5.78;;;;;;;11.60;60.48;99698.27;1809333;78;21014;-67
2022/02/12 02:21:25;;;;;;;6.58;5.87;;;;;;;11.60;60.47;99711.58;1806910;79;21006;-67
2022/02/12 02:23:51;;;;;;;6.40;5.28;;;;;;;11.57;60.45;99712.77;1814307;78;21502;-68
2022/02/12 02:26:19;;;;;;;7.30;5.78;;;;;;;11.57;60.47;99719.41;1811326;79;21081;-68
2022/02/12 02:28:50;;;;;;;6.55;5.85;;;;;;;11.58;60.46;99721.05;1814412;79;20995;-67
2022/02/12 02:31:16;;;;;;;8.00;6.25;;;;;;;11.57;60.44;99731.38;1801478;79;21272;-66
2022/02/12 02:33:44;;;;;;;7.08;6.05;;;;;;;11.58;60.40;99725.05;1801870;79;21505;-67
2022/02/12 02:36:13;;;;;;;6.50;5.53;;;;;;;11.57;60.37;99730.05;1813726;78;21470;-67
2022/02/12 02:38:42;;;;;;;7.42;6.72;;;;;;;11.57;60.36;99739.37;1796110;79;21097;-66
2022/02/12 02:41:09;;;;;;;6.47;5.65;;;;;;;11.54;60.37;99734.38;1806337;79;21021;-66
2022/02/12 02:43:36;;;;;;;6.80;6.08;;;;;;;11.54;60.37;99736.22;1800736;79;21557;-66
2022/02/12 02:46:04;;;;;;;7.33;6.30;;;;;;;11.52;60.37;99735.57;1806655;78;21077;-66
2022/02/12 02:48:30;;;;;;;6.10;5.47;;;;;;;11.52;60.35;99742.22;1795266;78;21569;-67
2022/02/12 02:56:26;;;;;;;6.75;6.00;;;;;;;11.49;60.36;99763.84;1819215;78;21053;-67
2022/02/12 02:58:53;;;;;;;6.12;5.53;;;;;;;11.47;60.37;99773.31;1817141;77;21052;-66
2022/02/12 03:01:24;;;;;;;6.87;5.60;;;;;;;11.47;60.37;99783.95;1824958;78;21018;-66
2022/02/12 03:03:52;;;;;;;5.90;5.30;;;;;;;11.46;60.34;99791.62;1817500;77;21132;-66
2022/02/12 03:06:21;;;;;;;5.95;5.25;;;;;;;11.46;60.35;99796.95;1806342;77;21473;-66
2022/02/12 03:08:48;;;;;;;6.10;5.20;;;;;;;11.46;60.33;99801.45;1816099;78;20993;-66
2022/02/12 03:11:16;;;;;;;6.12;5.47;;;;;;;11.46;60.34;99802.27;1810616;78;21005;-67
2022/02/12 03:13:43;;;;;;;5.80;5.20;;;;;;;11.45;60.30;99802.44;1811952;78;21110;-66
2022/02/12 03:16:11;;;;;;;5.97;5.20;;;;;;;11.44;60.30;99813.58;1817150;78;21541;-65
2022/02/12 03:18:39;;;;;;;5.20;4.70;;;;;;;11.44;60.27;99822.89;1806775;78;21446;-67
2022/02/12 03:21:06;;;;;;;6.22;5.40;;;;;;;11.43;60.28;99823.06;1820457;77;21025;-66
2022/02/12 03:23:34;;;;;;;5.12;4.62;;;;;;;11.43;60.27;99829.20;1798898;77;20981;-67
2022/02/12 03:26:00;;;;;;;5.80;5.22;;;;;;;11.42;60.26;99834.20;1802281;78;21068;-67
2022/02/12 03:28:26;;;;;;;4.90;4.40;;;;;;;11.41;60.27;99849.34;1825691;78;21115;-67
2022/02/12 03:30:53;;;;;;;5.60;4.53;;;;;;;11.41;60.26;99840.52;1823568;78;21025;-67
2022/02/12 03:33:20;;;;;;;6.03;4.62;;;;;;;11.40;60.22;99846.85;1800479;78;21084;-66
2022/02/12 03:35:53;;;;;;;5.58;4.42;;;;;;;11.41;60.22;99849.83;1812748;78;22125;-68
2022/02/12 03:38:26;;;;;;;5.20;4.37;;;;;;;11.40;60.22;99854.33;1811730;77;21018;-67
2022/02/12 03:40:56;;;;;;;4.90;4.40;;;;;;;11.40;60.20;99856.16;1806525;78;21135;-67
2022/02/12 03:43:22;;;;;;;4.80;3.92;;;;;;;11.39;60.19;99859.30;1803976;78;21043;-66
2022/02/12 03:45:49;;;;;;;5.10;4.37;;;;;;;11.39;60.17;99873.11;1804900;78;21549;-67
2022/02/12 03:48:15;;;;;;;4.90;4.40;;;;;;;11.38;60.16;99882.10;1824127;78;21057;-67
2022/02/12 03:50:42;;;;;;;4.72;4.00;;;;;;;11.37;60.15;99887.08;1824421;78;20997;-67
2022/02/12 03:53:09;;;;;;;5.10;4.53;;;;;;;11.36;60.15;99896.89;1795869;78;22631;-67
2022/02/12 03:55:40;;;;;;;4.33;3.87;;;;;;;11.36;60.13;99909.37;1817125;78;21037;-67
2022/02/12 03:58:12;;;;;;;5.20;4.00;;;;;;;11.34;60.12;99918.02;1803875;78;21520;-68
2022/02/12 04:00:39;;;;;;;4.62;3.60;;;;;;;11.35;60.11;99930.30;1811482;78;21040;-68
2022/02/12 04:03:06;;;;;;;4.55;4.10;;;;;;;11.34;60.12;99938.80;1819381;78;21065;-68
2022/02/12 04:05:33;;;;;;;4.92;4.30;;;;;;;11.34;60.08;99944.11;1808370;78;21521;-68
2022/02/12 04:08:01;;;;;;;4.28;3.83;;;;;;;11.34;60.10;99951.27;1807058;78;21534;-66
2022/02/12 04:10:28;;;;;;;4.75;4.08;;;;;;;11.33;60.10;99953.58;1822128;78;21017;-67
2022/02/12 04:12:55;;;;;;;4.72;4.00;;;;;;;11.33;60.07;99958.91;1818908;78;21056;-67
2022/02/12 04:15:23;;;;;;;4.20;3.72;;;;;;;11.32;60.07;99962.07;1815800;78;20989;-69
2022/02/12 04:17:49;;;;;;;4.80;3.72;;;;;;;11.31;60.07;99968.88;1821993;78;21122;-67
2022/02/12 04:20:18;;;;;;;4.92;3.70;;;;;;;11.31;60.05;99972.87;1823069;78;21018;-67
2022/02/12 04:22:44;;;;;;;4.53;3.92;;;;;;;11.31;60.06;99980.84;1822279;78;21016;-67
2022/02/12 04:25:15;;;;;;;4.15;3.75;;;;;;;11.30;60.05;99999.12;1798331;78;21096;-66
2022/02/12 04:27:42;;;;;;;4.60;3.70;;;;;;;11.30;60.04;100000.45;1814649;78;21087;-68
2022/02/12 04:30:10;;;;;;;4.42;3.92;;;;;;;11.30;60.02;100005.30;1814569;78;21370;-67
2022/02/12 04:32:39;;;;;;;4.33;3.70;;;;;;;11.29;60.02;100002.28;1812943;78;21017;-67
2022/02/12 04:35:07;;;;;;;4.30;3.58;;;;;;;11.28;60.02;100009.09;1819421;78;21028;-67
2022/02/12 04:37:34;;;;;;;3.95;3.55;;;;;;;11.29;60.01;100013.43;1825514;78;21053;-67
2022/02/12 04:40:00;;;;;;;3.22;2.92;;;;;;;11.29;60.00;100022.73;1812252;78;21029;-67
2022/02/12 04:42:27;;;;;;;3.45;3.02;;;;;;;11.29;59.99;100024.06;1814194;78;21785;-68
2022/02/12 04:44:53;;;;;;;4.05;3.45;;;;;;;11.27;60.00;100025.56;1811399;78;21623;-67
2022/02/12 04:47:23;;;;;;;3.62;3.22;;;;;;;11.27;59.98;100031.38;1825146;78;21514;-68
2022/02/12 04:49:49;;;;;;;3.87;3.30;;;;;;;11.27;59.97;100038.03;1818928;78;21025;-67
2022/02/12 04:52:18;;;;;;;2.95;2.65;;;;;;;11.27;59.97;100051.33;1825572;78;21069;-67
2022/02/12 04:54:44;;;;;;;3.30;3.00;;;;;;;11.26;59.97;100057.16;1815016;78;21762;-67
2022/02/12 04:57:11;;;;;;;2.83;2.60;;;;;;;11.26;59.95;100064.28;1819184;77;21073;-66
2022/02/12 04:59:37;;;;;;;4.03;3.52;;;;;;;11.25;59.95;100063.97;1813178;78;20987;-66
2022/02/12 05:02:04;;;;;;;3.12;2.83;;;;;;;11.24;59.95;100071.09;1814273;79;21003;-67
2022/02/12 05:04:32;;;;;;;3.22;2.92;;;;;;;11.25;59.92;100075.93;1807307;79;21011;-68
2022/02/12 05:06:59;;;;;;;3.08;2.77;;;;;;;11.24;59.93;100087.05;1808029;79;21047;-67
2022/02/12 05:09:26;;;;;;;3.17;2.90;;;;;;;11.25;59.93;100087.90;1814091;79;20990;-67
2022/02/12 05:11:54;;;;;;;3.10;2.70;;;;;;;11.24;59.92;100092.87;1812569;78;21065;-66
2022/02/12 05:14:21;;;;;;;3.45;3.15;;;;;;;11.24;59.92;100097.68;1819842;77;21561;-66
2022/02/12 05:16:48;;;;;;;3.47;2.80;;;;;;;11.23;59.92;100100.53;1811366;79;21041;-67
2022/02/12 05:19:14;;;;;;;4.37;3.08;;;;;;;11.24;59.90;100110.16;1813064;78;21104;-66
2022/02/12 05:21:42;;;;;;;3.67;3.20;;;;;;;11.22;59.90;100111.64;1802393;79;21069;-67
2022/02/12 05:24:08;;;;;;;2.98;2.70;;;;;;;11.21;59.87;100116.64;1811551;79;21092;-67
2022/02/12 05:26:34;;;;;;;3.72;2.92;;;;;;;11.20;59.88;100118.48;1802372;79;21006;-67
2022/02/12 05:29:01;;;;;;;3.15;2.80;;;;;;;11.20;59.88;100126.45;1814511;77;21073;-66
2022/02/12 05:31:27;;;;;;;3.60;2.62;;;;;;;11.21;59.88;100137.41;1785655;79;21773;-66
2022/02/12 05:33:53;;;;;;;3.45;2.70;;;;;;;11.20;59.86;100137.09;1803089;79;21435;-68
2022/02/12 05:36:19;;;;;;;3.33;2.62;;;;;;;11.21;59.86;100142.73;1793161;79;21037;-67
2022/02/12 05:38:46;;;;;;;3.30;2.83;;;;;;;11.20;59.87;100150.39;1796985;79;21054;-67
2022/02/12 05:41:13;;;;;;;3.02;2.62;;;;;;;11.20;59.85;100155.71;1807046;77;21616;-68
2022/02/12 05:43:40;;;;;;;3.05;2.60;;;;;;;11.21;59.84;100160.52;1809559;79;21765;-67
2022/02/12 05:46:07;;;;;;;2.83;2.42;;;;;;;11.21;59.83;100159.19;1805529;78;21502;-67
2022/02/12 05:48:34;;;;;;;3.05;2.55;;;;;;;11.20;59.82;100165.48;1812945;78;21002;-67
2022/02/12 05:51:00;;;;;;;2.70;2.40;;;;;;;11.21;59.84;100172.48;1811500;79;21017;-67
2022/02/12 05:53:27;;;;;;;2.77;2.47;;;;;;;11.20;59.83;100178.31;1814402;79;21017;-68
2022/02/12 05:55:53;;;;;;;3.08;2.60;;;;;;;11.22;59.79;100180.78;1796849;77;21137;-68
2022/02/12 05:58:20;;;;;;;3.22;2.75;;;;;;;11.22;59.78;100187.44;1813172;78;21450;-67
2022/02/12 06:00:46;;;;;;;2.98;2.58;;;;;;;11.21;59.77;100189.27;1799056;79;21041;-67
2022/02/12 06:03:13;;;;;;;2.98;2.67;;;;;;;11.21;59.77;100193.77;1813254;79;20991;-67
2022/02/12 06:05:40;;;;;;;2.65;2.42;;;;;;;11.21;59.77;100199.08;1813310;79;21070;-68
2022/02/12 06:08:07;;;;;;;2.42;2.22;;;;;;;11.21;59.76;100203.89;1811864;79;21129;-67
2022/02/12 06:10:34;;;;;;;2.87;2.47;;;;;;;11.19;59.77;100208.55;1809379;78;21087;-67
2022/02/12 06:13:01;;;;;;;2.25;2.02;;;;;;;11.20;59.77;100210.22;1812388;78;21084;-68
2022/02/12 06:15:29;;;;;;;3.25;2.92;;;;;;;11.20;59.74;100216.87;1802897;79;21006;-68
2022/02/12 06:17:56;;;;;;;3.27;2.95;;;;;;;11.20;59.78;100218.20;1809848;79;21060;-67
2022/02/12 06:20:23;;;;;;;3.20;2.70;;;;;;;11.21;59.77;100222.52;1807652;79;21130;-68
2022/02/12 06:22:49;;;;;;;3.10;2.80;;;;;;;11.20;59.77;100228.84;1801923;79;21049;-66
2022/02/12 06:25:16;;;;;;;3.15;2.77;;;;;;;11.20;59.75;100230.64;1811897;77;21475;-66
2022/02/12 06:27:42;;;;;;;3.47;2.60;;;;;;;11.20;59.74;100239.48;1799579;78;21044;-68
2022/02/12 06:30:09;;;;;;;2.83;2.52;;;;;;;11.20;59.74;100243.47;1790011;79;21478;-68
2022/02/12 06:32:37;;;;;;;2.60;2.37;;;;;;;11.20;59.73;100247.45;1813555;77;21039;-69
2022/02/12 06:35:04;;;;;;;3.55;2.80;;;;;;;11.20;59.72;100251.45;1797554;79;21090;-68
2022/02/12 06:37:31;;;;;;;3.00;2.62;;;;;;;11.20;59.71;100251.45;1802375;79;21074;-67
2022/02/12 06:39:58;;;;;;;2.83;2.30;;;;;;;11.21;59.70;100255.75;1807834;78;21043;-67
2022/02/12 06:42:24;;;;;;;2.50;2.30;;;;;;;11.23;59.69;100265.42;1812050;77;21088;-68
2022/02/12 06:44:50;;;;;;;4.40;2.30;;;;;;;11.21;59.69;100266.39;1813670;77;21075;-67
2022/02/12 06:47:17;;;;;;;2.65;2.30;;;;;;;11.21;59.70;100276.20;1819090;77;21032;-66
2022/02/12 06:49:44;;;;;;;3.47;2.30;;;;;;;11.21;59.68;100278.87;1839866;77;21042;-66
2022/02/12 06:52:11;;;;;;;2.80;2.60;;;;;;;11.21;59.68;100281.02;1814545;79;21030;-67
2022/02/12 06:54:38;;;;;;;2.58;2.27;;;;;;;11.20;59.67;100284.69;1809052;79;21068;-67
2022/02/12 06:57:04;;;;;;;2.77;2.27;;;;;;;11.22;59.69;100297.80;1825602;78;21111;-67
2022/02/12 06:59:30;;;;;;;3.00;2.27;;;;;;;11.22;59.70;100296.47;1824809;78;21032;-67
2022/02/12 07:01:57;;;;;;;2.37;2.02;;;;;;;11.23;59.72;100296.00;1825842;77;21092;-66
2022/02/12 07:04:28;;;;;;;2.55;2.15;;;;;;;11.24;59.71;100308.29;1830661;77;21522;-67
2022/02/12 07:06:51;;;;;;;2.87;2.37;;;;;;;11.24;59.71;100311.77;1794505;78;21018;-67
2022/02/12 07:09:18;;;;;;;2.77;2.25;;;;;;;11.25;59.69;100319.28;1793601;80;22082;-67
2022/02/12 07:11:44;;;;;;;2.58;2.33;;;;;;;11.26;59.68;100320.93;1794405;78;21025;-67
2022/02/12 07:14:11;;;;;;;3.33;2.60;;;;;;;11.27;59.68;100326.60;1794347;78;21009;-67
2022/02/12 07:16:37;;;;;;;3.62;2.90;;;;;;;11.27;59.65;100335.91;1814970;78;21034;-67
2022/02/12 07:19:04;;;;;;;3.25;2.67;;;;;;;11.27;59.64;100343.39;1813893;77;21013;-67
2022/02/12 07:21:33;;;;;;;3.30;2.70;;;;;;;11.28;59.63;100344.21;1793428;80;21883;-67
2022/02/12 07:23:58;;;;;;;2.95;2.58;;;;;;;11.29;59.63;100346.72;1798467;78;21108;-66
2022/02/12 07:26:25;;;;;;;2.72;2.52;;;;;;;11.29;59.62;100348.55;1824794;78;20996;-67
2022/02/12 07:28:53;;;;;;;3.50;2.62;;;;;;;11.29;59.61;100356.03;1820873;78;21001;-67
2022/02/12 07:31:19;;;;;;;2.90;2.60;;;;;;;11.31;59.60;100365.19;1824236;78;20974;-67
2022/02/12 07:33:46;;;;;;;2.47;2.15;;;;;;;11.31;59.60;100368.67;1801582;78;21141;-68
2022/02/12 07:36:12;;;;;;;2.98;2.42;;;;;;;11.32;59.59;100370.36;1823512;78;21643;-67
2022/02/12 07:38:39;;;;;;;3.33;2.70;;;;;;;11.34;59.57;100378.19;1825808;78;21489;-68
2022/02/12 07:41:06;;;;;;;2.87;2.55;;;;;;;11.33;59.55;100387.14;1822561;78;21075;-67
2022/02/12 07:43:33;;;;;;;3.60;2.52;;;;;;;11.34;59.54;100386.16;1826226;77;21032;-67
2022/02/12 07:46:00;;;;;;;3.22;2.65;;;;;;;11.34;59.54;100390.98;1833682;78;21796;-66
2022/02/12 07:48:27;;;;;;;3.33;2.80;;;;;;;11.35;59.51;100392.63;1828149;78;21031;-66
2022/02/12 07:50:54;;;;;;;2.60;2.40;;;;;;;11.36;59.52;100406.28;1793507;80;21037;-67
2022/02/12 07:53:23;;;;;;;3.08;2.05;;;;;;;11.37;59.49;100404.45;1815148;78;21033;-66
2022/02/12 07:55:50;;;;;;;2.83;2.35;;;;;;;11.38;59.47;100415.45;1822094;78;20971;-66
2022/02/12 07:58:16;;;;;;;3.02;2.20;;;;;;;11.38;59.47;100417.60;1798226;78;22026;-66
2022/02/12 08:00:43;;;;;;;2.70;2.50;;;;;;;11.39;59.46;100417.09;1812070;78;21670;-67
2022/02/12 08:03:09;;;;;;;2.55;2.30;;;;;;;11.40;59.45;100417.45;1804929;77;21021;-67
2022/02/12 08:05:36;;;;;;;2.77;2.22;;;;;;;11.41;59.42;100421.77;1783264;79;21092;-67
2022/02/12 08:08:04;;;;;;;2.90;2.60;;;;;;;11.40;59.42;100429.42;1796135;79;21068;-68
2022/02/12 08:13:16;;;;;;;2.60;2.40;;;;;;;11.42;59.42;100439.41;1801641;79;21271;-68
2022/02/12 08:15:42;;;;;;;2.87;2.22;;;;;;;11.43;59.35;100441.57;1787433;79;21102;-67
2022/02/12 08:18:09;;;;;;;3.20;2.80;;;;;;;11.44;59.36;100443.25;1811072;79;21021;-68
2022/02/12 08:20:35;;;;;;;3.60;2.30;;;;;;;11.44;59.34;100451.23;1807700;79;21446;-67
2022/02/12 08:23:02;;;;;;;2.83;2.47;;;;;;;11.44;59.33;100452.06;1812503;79;21113;-69
2022/02/12 08:25:29;;;;;;;2.72;2.15;;;;;;;11.44;59.31;100451.23;1798075;79;21022;-68
2022/02/12 08:27:55;;;;;;;3.35;2.50;;;;;;;11.45;59.30;100461.70;1808723;79;21173;-67
2022/02/12 08:30:23;;;;;;;2.50;2.30;;;;;;;11.45;59.28;100466.19;1810363;79;21116;-66
2022/02/12 08:32:49;;;;;;;2.52;2.33;;;;;;;11.46;59.27;100471.36;1809141;79;21475;-68
2022/02/12 08:35:16;;;;;;;2.90;2.30;;;;;;;11.46;59.27;100478.52;1814309;79;21087;-67
2022/02/12 08:37:44;;;;;;;2.67;2.22;;;;;;;11.46;59.24;100475.86;1801486;79;21033;-67
2022/02/12 08:40:18;;;;;;;3.00;2.50;;;;;;;11.46;59.24;100486.50;1728909;82;21065;-66
2022/02/12 08:42:44;;;;;;;;;;;;;;;11.46;59.21;100493.98;1740715;81;21039;-67
2022/02/12 08:45:11;;;;;;;2.37;2.17;;;;;;;11.47;59.21;100504.12;1745088;82;20193;-68
2022/02/12 08:47:38;;;;;;;3.02;2.55;;;;;;;11.45;59.22;100504.27;1741046;82;21833;-66
2022/02/12 08:50:07;;;;;;;2.87;2.52;;;;;;;11.45;59.23;100513.58;1764887;80;20986;-70
2022/02/12 08:52:35;;;;;;;2.72;2.22;;;;;;;11.46;59.20;100517.09;1764246;79;21067;-68
2022/02/12 08:55:02;;;;;;;2.50;2.20;;;;;;;11.46;59.19;100523.25;1763621;79;21031;-68
2022/02/12 08:57:29;;;;;;;2.87;2.10;;;;;;;11.46;59.18;100522.42;1755432;79;21066;-67
2022/02/12 08:59:56;;;;;;;2.42;2.05;;;;;;;11.47;59.18;100526.23;1764368;81;21128;-67
2022/02/12 09:02:22;;;;;;;3.22;2.72;;;;;;;11.48;59.15;100534.56;1743502;79;21502;-67
2022/02/12 09:04:48;;;;;;;2.70;2.50;;;;;;;11.49;59.11;100540.24;1764407;79;21058;-68
2022/02/12 09:07:14;;;;;;;2.90;2.40;;;;;;;11.50;59.11;100545.06;1761393;79;21533;-66
2022/02/12 09:09:42;;;;;;;2.20;1.98;;;;;;;11.51;59.08;100547.58;1764281;80;21621;-67
2022/02/12 09:12:11;;;;;;;2.47;2.27;;;;;;;11.52;59.06;100551.06;1754008;79;21992;-68
2022/02/12 09:14:37;;;;;;;2.67;2.33;;;;;;;11.52;59.06;100553.72;1760071;81;21081;-67
2022/02/12 09:17:05;;;;;;;2.77;2.25;;;;;;;11.53;59.04;100557.57;1752888;80;21502;-68
2022/02/12 09:19:32;;;;;;;2.60;2.33;;;;;;;11.55;59.03;100562.71;1764356;79;21004;-69
2022/02/12 09:22:00;;;;;;;3.15;2.40;;;;;;;11.58;59.02;100561.91;1762100;80;21054;-68
2022/02/12 09:24:26;;;;;;;2.80;2.40;;;;;;;11.60;59.00;100565.75;1737336;80;21107;-67
2022/02/12 09:26:52;;;;;;;4.87;2.72;;;;;;;11.63;58.96;100576.58;1745063;79;21121;-67
2022/02/12 09:29:18;;;;;;;3.00;2.70;;;;;;;11.66;58.94;100581.09;1764403;79;21522;-67
2022/02/12 09:31:45;;;;;;;2.67;2.30;;;;;;;11.70;58.89;100585.63;1739467;79;21529;-67
2022/02/12 09:34:11;;;;;;;2.87;2.22;;;;;;;11.73;58.84;100581.33;1769908;80;21001;-69
2022/02/12 09:36:39;;;;;;;2.55;2.17;;;;;;;11.76;58.79;100588.99;1755637;81;21100;-67
2022/02/12 09:39:07;;;;;;;2.67;2.20;;;;;;;11.79;58.78;100591.36;1762757;80;21025;-66
2022/02/12 09:41:33;;;;;;;2.62;2.25;;;;;;;11.83;58.71;100594.05;1744870;81;21066;-66
2022/02/12 09:44:00;;;;;;;2.55;2.15;;;;;;;11.85;58.64;100598.72;1759907;79;21144;-67
2022/02/12 09:46:44;;;;;;;2.45;2.20;;;;;;;11.87;58.61;100594.57;1752774;79;21062;-68
2022/02/12 09:49:10;;;;;;;3.22;2.20;;;;;;;11.90;58.56;100598.27;1760206;79;21307;-67
2022/02/12 09:51:37;;;;;;;2.47;2.27;;;;;;;11.92;58.52;100609.13;1752819;80;21085;-66
2022/02/12 09:54:03;;;;;;;2.80;2.50;;;;;;;11.93;58.49;100604.13;1743458;79;21567;-69
2022/02/12 09:56:30;;;;;;;2.50;2.30;;;;;;;11.94;58.47;100610.30;1766766;80;21046;-67
2022/02/12 09:58:57;;;;;;;2.22;1.85;;;;;;;11.95;58.46;100611.96;1822350;77;21534;-68
2022/02/12 10:01:23;;;;;;;2.50;2.10;;;;;;;11.96;58.44;100614.48;1823128;78;21047;-68
2022/02/12 10:03:51;;;;;;;3.20;2.37;;;;;;;11.97;58.40;100618.80;1823290;77;21028;-68
2022/02/12 10:06:39;;;;;;;3.17;2.45;;;;;;;11.97;58.36;100618.80;1822037;78;21053;-68
2022/02/12 10:09:06;;;;;;;2.92;2.22;;;;;;;11.98;58.34;100620.48;1815201;78;20970;-66
2022/02/12 10:11:47;;;;;;;2.30;2.10;;;;;;;11.99;58.32;100628.83;1823306;78;21068;-66
2022/02/12 10:14:17;;;;;;;3.80;2.73;;;;;;;12.02;58.29;100633.50;1823597;77;21657;-68
2022/02/12 10:16:58;;;;;;;2.75;2.20;;;;;;;12.03;58.27;100640.47;1818179;78;21228;-66
2022/02/12 10:19:36;;;;;;;3.10;2.58;;;;;;;12.04;58.25;100642.98;1816691;78;21033;-65
2022/02/12 10:22:15;;;;;;;3.50;2.62;;;;;;;12.05;58.20;100643.31;1803924;78;21005;-63
2022/02/12 10:25:00;;;;;;;3.15;2.00;;;;;;;12.07;58.17;100645.36;1808843;78;21041;-66
2022/02/12 10:27:26;;;;;;;3.22;2.20;;;;;;;12.08;58.18;100646.19;1813056;77;21294;-65
2022/02/12 10:29:54;;;;;;;2.67;2.27;;;;;;;12.11;58.16;100655.17;1801974;78;21524;-64
2022/02/12 10:32:23;;;;;;;2.10;1.85;;;;;;;12.12;58.17;100655.53;1816651;77;21527;-65
2022/02/12 10:34:50;;;;;;;2.17;1.98;;;;;;;12.15;58.15;100663.22;1823096;78;21528;-64
2022/02/12 10:37:20;;;;;;;3.08;2.35;;;;;;;12.17;58.13;100666.06;1834097;77;21026;-66
2022/02/12 10:39:58;;;;;;;2.20;2.00;;;;;;;12.18;58.13;100665.55;1822240;78;21077;-69
2022/02/12 10:42:29;;;;;;;2.40;2.20;;;;;;;12.20;58.07;100675.55;1794429;78;21544;-65
2022/02/12 10:44:55;;;;;;;2.60;2.25;;;;;;;12.22;58.06;100683.40;1821200;78;22129;-65
2022/02/12 10:47:22;;;;;;;2.65;2.02;;;;;;;12.24;58.03;100686.73;1823144;78;21023;-67
2022/02/12 10:49:49;;;;;;;2.65;2.15;;;;;;;12.25;58.01;100639.14;1819061;77;21029;-66
2022/02/12 10:52:16;;;;;;;4.83;3.20;;;;;;;12.29;58.30;100636.50;1799965;78;21141;-65
2022/02/12 10:54:50;;;;;;;5.95;3.90;;;;;;;12.36;60.61;100642.38;1822809;78;21049;-67
2022/02/12 10:57:19;;;;;;;10.23;4.12;;;;;;;12.46;64.43;100700.89;1795056;78;21030;-68
2022/02/12 10:59:45;;;;;;;6.22;3.50;;;;;;;12.57;67.76;100696.63;1785533;79;21073;-67
2022/02/12 11:02:18;;;;;;;10.90;4.62;;;;;;;12.74;70.64;100698.04;1795160;77;21069;-66
2022/02/12 11:04:49;;;;;;;9.40;4.50;;;;;;;12.93;72.64;100700.97;1835883;77;22128;-66
2022/02/12 11:07:16;;;;;;;10.93;4.22;;;;;;;13.03;74.39;100708.84;1788579;78;21001;-67
2022/02/12 11:09:44;;;;;;;8.45;3.70;;;;;;;13.10;75.66;100712.05;1809829;77;21005;-66
2022/02/12 11:12:12;;;;;;;9.10;4.10;;;;;;;13.25;76.40;100718.95;1772397;79;21501;-67
2022/02/12 11:14:39;;;;;;;6.25;3.60;;;;;;;13.43;76.64;100719.36;1805355;79;21033;-66
2022/02/12 11:17:11;;;;;;;8.08;3.47;;;;;;;13.50;76.92;100722.55;1804073;78;21183;-67
2022/02/12 11:19:38;;;;;;;9.53;3.80;;;;;;;13.56;76.99;100735.23;1814178;77;20994;-65
2022/02/12 11:22:04;;;;;;;6.35;2.90;;;;;;;13.62;76.75;100735.56;1812377;79;21941;-62
2022/02/12 11:24:43;;;;;;;5.50;2.92;;;;;;;13.67;76.41;100738.08;1801852;79;21033;-68
2022/02/12 11:27:23;;;;;;;5.08;2.65;;;;;;;13.80;76.02;100743.47;1794754;79;21045;-66
2022/02/12 11:30:12;;;;;;;5.53;2.65;;;;;;;13.97;75.11;100745.16;1792029;79;21819;-66
2022/02/12 11:32:45;;;;;;;4.03;2.72;;;;;;;14.02;74.43;100746.80;1800691;79;21549;-66
2022/02/12 11:35:15;;;;;;;4.17;2.52;;;;;;;14.07;73.90;100751.16;1796373;78;20991;-69
2022/02/12 11:37:45;;;;;;;6.55;2.85;;;;;;;14.11;73.42;100757.84;1802368;79;21025;-70
2022/02/12 11:40:20;;;;;;;4.92;2.75;;;;;;;14.16;73.01;100760.86;1813315;77;21661;-68